sensor_id;sensor_type;location;lat;lon;timestamp;temperature;humidity
21678;DHT22;11000;50.360;7.582;2023-03-14T00:01:53;12.60;99.90
21678;DHT22;11000;50.360;7.582;2023-03-14T00:04:13;12.60;99.90
21678;DHT22;11000;50.360;7.582;2023-03-14T00:06:35;12.50;99.90
21678;DHT22;11000;50.360;7.582;2023-03-14T00:08:55;12.50;99.90
21678;DHT22;11000;50.360;7.582;2023-03-14T00:11:20;12.50;99.90
21678;DHT22;11000;50.360;7.582;2023-03-14T00:13:41;12.50;99.90
21678;DHT22;11000;50.360;7.582;2023-03-14T00:16:04;12.50;99.90
21678;DHT22;11000;50.360;7.582;2023-03-14T00:18:24;12.50;99.90
21678;DHT22;11000;50.360;7.582;2023-03-14T00:20:45;12.50;99.90
21678;DHT22;11000;50.360;7.582;2023-03-14T00:23:05;12.60;99.90
21678;DHT22;11000;50.360;7.582;2023-03-14T00:25:26;12.60;99.90
21678;DHT22;11000;50.360;7.582;2023-03-14T00:27:46;12.70;99.90
21678;DHT22;11000;50.360;7.582;2023-03-14T00:30:07;12.70;99.90
21678;DHT22;11000;50.360;7.582;2023-03-14T00:32:30;12.60;99.90
21678;DHT22;11000;50.360;7.582;2023-03-14T00:34:51;12.70;99.90
21678;DHT22;11000;50.360;7.582;2023-03-14T00:37:11;12.70;99.90
21678;DHT22;11000;50.360;7.582;2023-03-14T00:39:32;12.70;99.90
21678;DHT22;11000;50.360;7.582;2023-03-14T00:41:52;12.60;99.90
21678;DHT22;11000;50.360;7.582;2023-03-14T00:44:13;12.60;99.90
21678;DHT22;11000;50.360;7.582;2023-03-14T00:46:33;12.60;99.90
21678;DHT22;11000;50.360;7.582;2023-03-14T00:48:54;12.60;99.90
21678;DHT22;11000;50.360;7.582;2023-03-14T00:51:15;12.60;99.90
21678;DHT22;11000;50.360;7.582;2023-03-14T00:53:36;12.50;99.90
21678;DHT22;11000;50.360;7.582;2023-03-14T00:55:59;12.60;99.90
21678;DHT22;11000;50.360;7.582;2023-03-14T00:58:24;12.50;99.90
21678;DHT22;11000;50.360;7.582;2023-03-14T01:00:45;12.50;99.90
21678;DHT22;11000;50.360;7.582;2023-03-14T01:03:06;12.40;99.90
21678;DHT22;11000;50.360;7.582;2023-03-14T01:05:27;12.40;99.90
21678;DHT22;11000;50.360;7.582;2023-03-14T01:07:48;12.40;99.90
21678;DHT22;11000;50.360;7.582;2023-03-14T01:10:10;12.40;99.90
21678;DHT22;11000;50.360;7.582;2023-03-14T01:12:31;12.40;99.90
21678;DHT22;11000;50.360;7.582;2023-03-14T01:14:51;12.40;99.90
21678;DHT22;11000;50.360;7.582;2023-03-14T01:17:12;12.30;99.90
21678;DHT22;11000;50.360;7.582;2023-03-14T01:19:32;12.30;99.90
21678;DHT22;11000;50.360;7.582;2023-03-14T01:21:53;12.30;99.90
21678;DHT22;11000;50.360;7.582;2023-03-14T01:24:13;12.20;99.90
21678;DHT22;11000;50.360;7.582;2023-03-14T01:26:34;12.20;99.90
21678;DHT22;11000;50.360;7.582;2023-03-14T01:28:56;12.10;99.90
21678;DHT22;11000;50.360;7.582;2023-03-14T01:31:16;12.10;99.90
21678;DHT22;11000;50.360;7.582;2023-03-14T01:33:38;12.00;99.90
21678;DHT22;11000;50.360;7.582;2023-03-14T01:35:59;12.00;99.90
21678;DHT22;11000;50.360;7.582;2023-03-14T01:38:22;12.10;99.90
21678;DHT22;11000;50.360;7.582;2023-03-14T01:40:44;12.00;99.90
21678;DHT22;11000;50.360;7.582;2023-03-14T01:43:15;12.00;99.90
21678;DHT22;11000;50.360;7.582;2023-03-14T01:48:40;12.00;99.90
21678;DHT22;11000;50.360;7.582;2023-03-14T01:51:02;11.90;99.90
21678;DHT22;11000;50.360;7.582;2023-03-14T01:53:25;12.00;99.90
21678;DHT22;11000;50.360;7.582;2023-03-14T01:55:46;11.90;99.90
21678;DHT22;11000;50.360;7.582;2023-03-14T01:58:07;11.90;99.90
21678;DHT22;11000;50.360;7.582;2023-03-14T02:00:28;11.90;99.90
21678;DHT22;11000;50.360;7.582;2023-03-14T02:02:52;12.00;99.90
21678;DHT22;11000;50.360;7.582;2023-03-14T02:05:17;12.00;99.90
21678;DHT22;11000;50.360;7.582;2023-03-14T02:07:50;12.10;99.90
21678;DHT22;11000;50.360;7.582;2023-03-14T02:10:12;12.10;99.90
21678;DHT22;11000;50.360;7.582;2023-03-14T02:12:33;12.10;99.90
21678;DHT22;11000;50.360;7.582;2023-03-14T02:14:54;12.10;99.90
21678;DHT22;11000;50.360;7.582;2023-03-14T02:17:16;12.10;99.90
21678;DHT22;11000;50.360;7.582;2023-03-14T02:20:10;12.10;99.90
21678;DHT22;11000;50.360;7.582;2023-03-14T02:22:34;12.10;99.90
21678;DHT22;11000;50.360;7.582;2023-03-14T02:27:31;12.10;99.90
21678;DHT22;11000;50.360;7.582;2023-03-14T02:29:58;12.10;99.90
21678;DHT22;11000;50.360;7.582;2023-03-14T02:32:21;12.00;99.90
21678;DHT22;11000;50.360;7.582;2023-03-14T02:34:45;12.00;99.90
21678;DHT22;11000;50.360;7.582;2023-03-14T02:37:07;11.90;99.90
21678;DHT22;11000;50.360;7.582;2023-03-14T02:39:39;11.90;99.90
21678;DHT22;11000;50.360;7.582;2023-03-14T02:42:02;11.90;99.90
21678;DHT22;11000;50.360;7.582;2023-03-14T02:44:22;11.90;99.90
21678;DHT22;11000;50.360;7.582;2023-03-14T02:46:43;11.90;99.90
21678;DHT22;11000;50.360;7.582;2023-03-14T02:49:07;11.90;99.90
21678;DHT22;11000;50.360;7.582;2023-03-14T02:51:28;11.90;99.90
21678;DHT22;11000;50.360;7.582;2023-03-14T02:53:49;11.90;99.90
21678;DHT22;11000;50.360;7.582;2023-03-14T02:56:10;11.90;99.90
21678;DHT22;11000;50.360;7.582;2023-03-14T02:58:31;11.80;99.90
21678;DHT22;11000;50.360;7.582;2023-03-14T03:00:52;11.80;99.90
21678;DHT22;11000;50.360;7.582;2023-03-14T03:03:13;11.80;99.90
21678;DHT22;11000;50.360;7.582;2023-03-14T03:05:33;11.80;99.90
21678;DHT22;11000;50.360;7.582;2023-03-14T03:07:54;11.80;99.90
21678;DHT22;11000;50.360;7.582;2023-03-14T03:10:17;11.80;99.90
21678;DHT22;11000;50.360;7.582;2023-03-14T03:12:38;11.80;99.90
21678;DHT22;11000;50.360;7.582;2023-03-14T03:14:58;11.80;99.90
21678;DHT22;11000;50.360;7.582;2023-03-14T03:17:19;11.80;99.90
21678;DHT22;11000;50.360;7.582;2023-03-14T03:19:39;11.70;99.90
21678;DHT22;11000;50.360;7.582;2023-03-14T03:22:00;11.70;99.90
21678;DHT22;11000;50.360;7.582;2023-03-14T03:24:21;11.70;99.90
21678;DHT22;11000;50.360;7.582;2023-03-14T03:26:41;11.60;99.90
21678;DHT22;11000;50.360;7.582;2023-03-14T03:29:02;11.70;99.90
21678;DHT22;11000;50.360;7.582;2023-03-14T03:31:23;11.70;99.90
21678;DHT22;11000;50.360;7.582;2023-03-14T03:33:43;11.70;99.90
21678;DHT22;11000;50.360;7.582;2023-03-14T03:36:04;11.70;99.90
21678;DHT22;11000;50.360;7.582;2023-03-14T03:38:25;11.70;99.90
21678;DHT22;11000;50.360;7.582;2023-03-14T03:40:45;11.80;99.90
21678;DHT22;11000;50.360;7.582;2023-03-14T03:43:06;11.80;99.90
21678;DHT22;11000;50.360;7.582;2023-03-14T03:45:26;11.80;99.90
21678;DHT22;11000;50.360;7.582;2023-03-14T03:47:47;11.80;99.90
21678;DHT22;11000;50.360;7.582;2023-03-14T03:50:08;11.80;99.90
21678;DHT22;11000;50.360;7.582;2023-03-14T03:52:29;11.80;99.90
21678;DHT22;11000;50.360;7.582;2023-03-14T03:54:49;11.80;99.90
21678;DHT22;11000;50.360;7.582;2023-03-14T03:57:10;11.80;99.90
21678;DHT22;11000;50.360;7.582;2023-03-14T03:59:30;11.80;99.90
21678;DHT22;11000;50.360;7.582;2023-03-14T04:01:50;11.80;99.90
21678;DHT22;11000;50.360;7.582;2023-03-14T04:04:11;11.70;99.90
21678;DHT22;11000;50.360;7.582;2023-03-14T04:06:32;11.70;99.90
21678;DHT22;11000;50.360;7.582;2023-03-14T04:08:53;11.70;99.90
21678;DHT22;11000;50.360;7.582;2023-03-14T04:11:14;11.60;99.90
21678;DHT22;11000;50.360;7.582;2023-03-14T04:13:34;11.60;99.90
21678;DHT22;11000;50.360;7.582;2023-03-14T04:15:55;11.60;99.90
21678;DHT22;11000;50.360;7.582;2023-03-14T04:18:16;11.50;99.90
21678;DHT22;11000;50.360;7.582;2023-03-14T04:20:36;11.60;99.90
21678;DHT22;11000;50.360;7.582;2023-03-14T04:22:57;11.50;99.90
21678;DHT22;11000;50.360;7.582;2023-03-14T04:25:17;11.50;99.90
21678;DHT22;11000;50.360;7.582;2023-03-14T04:27:40;11.50;99.90
21678;DHT22;11000;50.360;7.582;2023-03-14T04:30:00;11.50;99.90
21678;DHT22;11000;50.360;7.582;2023-03-14T04:32:21;11.50;99.90
21678;DHT22;11000;50.360;7.582;2023-03-14T04:34:41;11.60;99.90
21678;DHT22;11000;50.360;7.582;2023-03-14T04:37:02;11.60;99.90
21678;DHT22;11000;50.360;7.582;2023-03-14T04:39:22;11.60;99.90
21678;DHT22;11000;50.360;7.582;2023-03-14T04:41:44;11.60;99.90
21678;DHT22;11000;50.360;7.582;2023-03-14T04:44:05;11.60;99.90
21678;DHT22;11000;50.360;7.582;2023-03-14T04:46:25;11.60;99.90
21678;DHT22;11000;50.360;7.582;2023-03-14T04:48:46;11.60;99.90
21678;DHT22;11000;50.360;7.582;2023-03-14T04:51:07;11.50;99.90
21678;DHT22;11000;50.360;7.582;2023-03-14T04:53:27;11.60;99.90
21678;DHT22;11000;50.360;7.582;2023-03-14T04:55:49;11.50;99.90
21678;DHT22;11000;50.360;7.582;2023-03-14T04:58:10;11.50;99.90
21678;DHT22;11000;50.360;7.582;2023-03-14T05:00:30;11.50;99.90
21678;DHT22;11000;50.360;7.582;2023-03-14T05:02:51;11.50;99.90
21678;DHT22;11000;50.360;7.582;2023-03-14T05:05:12;11.50;99.90
21678;DHT22;11000;50.360;7.582;2023-03-14T05:07:32;11.40;99.90
21678;DHT22;11000;50.360;7.582;2023-03-14T05:09:52;11.40;99.90
21678;DHT22;11000;50.360;7.582;2023-03-14T05:12:13;11.40;99.90
21678;DHT22;11000;50.360;7.582;2023-03-14T05:14:34;11.40;99.90
21678;DHT22;11000;50.360;7.582;2023-03-14T05:16:54;11.30;99.90
21678;DHT22;11000;50.360;7.582;2023-03-14T05:19:14;11.30;99.90
21678;DHT22;11000;50.360;7.582;2023-03-14T05:21:35;11.30;99.90
21678;DHT22;11000;50.360;7.582;2023-03-14T05:23:56;11.30;99.90
21678;DHT22;11000;50.360;7.582;2023-03-14T05:26:16;11.20;99.90
21678;DHT22;11000;50.360;7.582;2023-03-14T05:28:37;11.20;99.90
21678;DHT22;11000;50.360;7.582;2023-03-14T05:30:57;11.10;99.90
21678;DHT22;11000;50.360;7.582;2023-03-14T05:33:18;11.00;99.90
21678;DHT22;11000;50.360;7.582;2023-03-14T05:35:38;10.90;99.90
21678;DHT22;11000;50.360;7.582;2023-03-14T05:37:59;10.90;99.90
21678;DHT22;11000;50.360;7.582;2023-03-14T05:40:20;10.90;99.90
21678;DHT22;11000;50.360;7.582;2023-03-14T05:42:41;10.80;99.90
21678;DHT22;11000;50.360;7.582;2023-03-14T05:45:01;10.80;99.90
21678;DHT22;11000;50.360;7.582;2023-03-14T05:47:22;10.80;99.90
21678;DHT22;11000;50.360;7.582;2023-03-14T05:49:42;10.70;99.90
21678;DHT22;11000;50.360;7.582;2023-03-14T05:52:03;10.70;99.90
21678;DHT22;11000;50.360;7.582;2023-03-14T05:54:23;10.80;99.90
21678;DHT22;11000;50.360;7.582;2023-03-14T05:56:44;10.80;99.90
21678;DHT22;11000;50.360;7.582;2023-03-14T05:59:04;10.80;99.90
21678;DHT22;11000;50.360;7.582;2023-03-14T06:01:27;10.80;99.90
21678;DHT22;11000;50.360;7.582;2023-03-14T06:03:48;10.90;99.90
21678;DHT22;11000;50.360;7.582;2023-03-14T06:06:08;10.90;99.90
21678;DHT22;11000;50.360;7.582;2023-03-14T06:08:29;10.80;99.90
21678;DHT22;11000;50.360;7.582;2023-03-14T06:10:50;10.90;99.90
21678;DHT22;11000;50.360;7.582;2023-03-14T06:13:10;10.90;99.90
21678;DHT22;11000;50.360;7.582;2023-03-14T06:15:31;10.90;99.90
21678;DHT22;11000;50.360;7.582;2023-03-14T06:17:56;10.90;99.90
21678;DHT22;11000;50.360;7.582;2023-03-14T06:20:16;10.90;99.90
21678;DHT22;11000;50.360;7.582;2023-03-14T06:22:37;11.00;99.90
21678;DHT22;11000;50.360;7.582;2023-03-14T06:24:58;11.00;99.90
21678;DHT22;11000;50.360;7.582;2023-03-14T06:27:19;11.10;99.90
21678;DHT22;11000;50.360;7.582;2023-03-14T06:29:39;11.10;99.90
21678;DHT22;11000;50.360;7.582;2023-03-14T06:31:59;11.10;99.90
21678;DHT22;11000;50.360;7.582;2023-03-14T06:34:20;11.10;99.90
21678;DHT22;11000;50.360;7.582;2023-03-14T06:36:40;11.10;99.90
21678;DHT22;11000;50.360;7.582;2023-03-14T06:39:01;11.10;99.90
21678;DHT22;11000;50.360;7.582;2023-03-14T06:41:21;11.10;99.90
21678;DHT22;11000;50.360;7.582;2023-03-14T06:43:44;11.00;99.90
21678;DHT22;11000;50.360;7.582;2023-03-14T06:46:05;11.00;99.90
21678;DHT22;11000;50.360;7.582;2023-03-14T06:48:25;11.00;99.90
21678;DHT22;11000;50.360;7.582;2023-03-14T06:50:47;11.00;99.90
21678;DHT22;11000;50.360;7.582;2023-03-14T06:53:08;11.00;99.90
21678;DHT22;11000;50.360;7.582;2023-03-14T06:55:29;11.00;99.90
21678;DHT22;11000;50.360;7.582;2023-03-14T06:57:49;11.00;99.90
21678;DHT22;11000;50.360;7.582;2023-03-14T07:00:11;11.00;99.90
21678;DHT22;11000;50.360;7.582;2023-03-14T07:02:32;11.00;99.90
21678;DHT22;11000;50.360;7.582;2023-03-14T07:04:52;11.10;99.90
21678;DHT22;11000;50.360;7.582;2023-03-14T07:07:13;11.20;99.90
21678;DHT22;11000;50.360;7.582;2023-03-14T07:09:34;11.30;99.90
21678;DHT22;11000;50.360;7.582;2023-03-14T07:11:55;11.40;99.90
21678;DHT22;11000;50.360;7.582;2023-03-14T07:14:15;11.40;99.90
21678;DHT22;11000;50.360;7.582;2023-03-14T07:16:36;11.40;99.90
21678;DHT22;11000;50.360;7.582;2023-03-14T07:18:57;11.30;99.90
21678;DHT22;11000;50.360;7.582;2023-03-14T07:21:17;11.40;99.90
21678;DHT22;11000;50.360;7.582;2023-03-14T07:23:38;11.40;99.90
21678;DHT22;11000;50.360;7.582;2023-03-14T07:25:59;11.60;99.90
21678;DHT22;11000;50.360;7.582;2023-03-14T07:28:19;12.00;99.90
21678;DHT22;11000;50.360;7.582;2023-03-14T07:30:40;12.20;99.90
21678;DHT22;11000;50.360;7.582;2023-03-14T07:33:00;12.40;99.90
21678;DHT22;11000;50.360;7.582;2023-03-14T07:35:21;12.40;99.90
21678;DHT22;11000;50.360;7.582;2023-03-14T07:37:41;12.30;99.90
21678;DHT22;11000;50.360;7.582;2023-03-14T07:40:02;12.30;99.90
21678;DHT22;11000;50.360;7.582;2023-03-14T07:42:26;12.50;99.90
21678;DHT22;11000;50.360;7.582;2023-03-14T07:44:46;12.80;99.90
21678;DHT22;11000;50.360;7.582;2023-03-14T07:47:07;12.80;99.90
21678;DHT22;11000;50.360;7.582;2023-03-14T07:49:27;12.80;99.90
21678;DHT22;11000;50.360;7.582;2023-03-14T07:51:48;12.70;99.90
21678;DHT22;11000;50.360;7.582;2023-03-14T07:54:09;12.80;99.90
21678;DHT22;11000;50.360;7.582;2023-03-14T07:56:29;12.60;99.90
21678;DHT22;11000;50.360;7.582;2023-03-14T07:58:50;12.60;99.90
21678;DHT22;11000;50.360;7.582;2023-03-14T08:01:10;12.50;99.90
21678;DHT22;11000;50.360;7.582;2023-03-14T08:03:31;12.50;99.90
21678;DHT22;11000;50.360;7.582;2023-03-14T08:05:51;12.40;99.90
21678;DHT22;11000;50.360;7.582;2023-03-14T08:08:12;12.30;99.90
21678;DHT22;11000;50.360;7.582;2023-03-14T08:10:33;12.20;99.90
21678;DHT22;11000;50.360;7.582;2023-03-14T08:12:55;12.20;99.90
21678;DHT22;11000;50.360;7.582;2023-03-14T08:15:16;12.10;99.90
21678;DHT22;11000;50.360;7.582;2023-03-14T08:17:37;12.20;99.90
21678;DHT22;11000;50.360;7.582;2023-03-14T08:19:57;12.20;99.90
21678;DHT22;11000;50.360;7.582;2023-03-14T08:22:18;12.20;99.90
21678;DHT22;11000;50.360;7.582;2023-03-14T08:24:38;12.30;99.90
21678;DHT22;11000;50.360;7.582;2023-03-14T08:26:59;12.30;99.90
21678;DHT22;11000;50.360;7.582;2023-03-14T08:29:19;12.40;99.90
21678;DHT22;11000;50.360;7.582;2023-03-14T08:31:40;12.40;99.90
21678;DHT22;11000;50.360;7.582;2023-03-14T08:34:01;12.30;99.90
21678;DHT22;11000;50.360;7.582;2023-03-14T08:36:22;12.40;99.90
21678;DHT22;11000;50.360;7.582;2023-03-14T08:38:42;12.40;99.90
21678;DHT22;11000;50.360;7.582;2023-03-14T08:41:03;12.50;99.90
21678;DHT22;11000;50.360;7.582;2023-03-14T08:43:24;12.60;99.90
21678;DHT22;11000;50.360;7.582;2023-03-14T08:45:44;12.70;99.90
21678;DHT22;11000;50.360;7.582;2023-03-14T08:48:05;12.70;99.90
21678;DHT22;11000;50.360;7.582;2023-03-14T08:50:26;12.60;99.90
21678;DHT22;11000;50.360;7.582;2023-03-14T08:52:46;12.50;99.90
21678;DHT22;11000;50.360;7.582;2023-03-14T08:55:08;12.50;99.90
21678;DHT22;11000;50.360;7.582;2023-03-14T08:57:29;12.60;99.90
21678;DHT22;11000;50.360;7.582;2023-03-14T08:59:49;12.60;99.90
21678;DHT22;11000;50.360;7.582;2023-03-14T09:02:13;12.70;99.90
21678;DHT22;11000;50.360;7.582;2023-03-14T09:04:33;12.70;99.90
21678;DHT22;11000;50.360;7.582;2023-03-14T09:06:54;12.70;99.90
21678;DHT22;11000;50.360;7.582;2023-03-14T09:09:14;12.70;99.90
21678;DHT22;11000;50.360;7.582;2023-03-14T09:11:35;12.60;99.90
21678;DHT22;11000;50.360;7.582;2023-03-14T09:13:55;12.60;99.90
21678;DHT22;11000;50.360;7.582;2023-03-14T09:16:16;12.60;99.90
21678;DHT22;11000;50.360;7.582;2023-03-14T09:18:37;12.50;99.90
21678;DHT22;11000;50.360;7.582;2023-03-14T09:20:58;12.50;99.90
21678;DHT22;11000;50.360;7.582;2023-03-14T09:23:18;12.50;99.90
21678;DHT22;11000;50.360;7.582;2023-03-14T09:25:39;12.50;99.90
21678;DHT22;11000;50.360;7.582;2023-03-14T09:27:59;12.50;99.90
21678;DHT22;11000;50.360;7.582;2023-03-14T09:30:20;12.60;99.90
21678;DHT22;11000;50.360;7.582;2023-03-14T09:32:40;12.60;99.90
21678;DHT22;11000;50.360;7.582;2023-03-14T09:35:01;12.60;99.90
21678;DHT22;11000;50.360;7.582;2023-03-14T09:37:21;12.60;99.90
21678;DHT22;11000;50.360;7.582;2023-03-14T09:39:42;12.60;99.90
21678;DHT22;11000;50.360;7.582;2023-03-14T09:42:06;12.60;99.90
21678;DHT22;11000;50.360;7.582;2023-03-14T09:44:33;12.60;99.90
21678;DHT22;11000;50.360;7.582;2023-03-14T09:46:58;12.50;99.90
21678;DHT22;11000;50.360;7.582;2023-03-14T09:49:29;12.40;99.90
21678;DHT22;11000;50.360;7.582;2023-03-14T09:51:53;12.50;99.90
21678;DHT22;11000;50.360;7.582;2023-03-14T09:54:29;12.40;99.90
21678;DHT22;11000;50.360;7.582;2023-03-14T09:56:50;12.50;99.90
21678;DHT22;11000;50.360;7.582;2023-03-14T09:59:12;12.50;99.90
21678;DHT22;11000;50.360;7.582;2023-03-14T10:01:34;12.60;99.90
21678;DHT22;11000;50.360;7.582;2023-03-14T10:03:57;12.60;99.90
21678;DHT22;11000;50.360;7.582;2023-03-14T10:06:27;12.60;99.90
21678;DHT22;11000;50.360;7.582;2023-03-14T10:08:48;12.60;99.90
21678;DHT22;11000;50.360;7.582;2023-03-14T10:11:15;12.60;99.90
21678;DHT22;11000;50.360;7.582;2023-03-14T10:14:06;12.60;99.90
21678;DHT22;11000;50.360;7.582;2023-03-14T10:16:33;12.60;99.90
21678;DHT22;11000;50.360;7.582;2023-03-14T10:18:53;12.50;99.90
21678;DHT22;11000;50.360;7.582;2023-03-14T10:21:26;12.50;99.90
21678;DHT22;11000;50.360;7.582;2023-03-14T10:23:47;12.50;99.90
21678;DHT22;11000;50.360;7.582;2023-03-14T10:26:16;12.60;99.90
21678;DHT22;11000;50.360;7.582;2023-03-14T10:28:47;12.70;99.90
21678;DHT22;11000;50.360;7.582;2023-03-14T10:31:07;12.70;99.90
21678;DHT22;11000;50.360;7.582;2023-03-14T10:33:31;12.70;99.90
21678;DHT22;11000;50.360;7.582;2023-03-14T10:36:00;12.70;99.90
21678;DHT22;11000;50.360;7.582;2023-03-14T10:38:25;12.80;99.90
21678;DHT22;11000;50.360;7.582;2023-03-14T10:40:49;12.80;99.90
21678;DHT22;11000;50.360;7.582;2023-03-14T10:43:16;12.80;99.90
21678;DHT22;11000;50.360;7.582;2023-03-14T10:45:42;12.80;99.90
21678;DHT22;11000;50.360;7.582;2023-03-14T10:48:22;12.90;99.90
21678;DHT22;11000;50.360;7.582;2023-03-14T10:51:35;12.50;99.90
21678;DHT22;11000;50.360;7.582;2023-03-14T10:53:49;11.70;99.90
21678;DHT22;11000;50.360;7.582;2023-03-14T10:56:20;10.70;99.90
21678;DHT22;11000;50.360;7.582;2023-03-14T10:58:49;10.30;99.90
21678;DHT22;11000;50.360;7.582;2023-03-14T11:01:45;10.10;99.90
21678;DHT22;11000;50.360;7.582;2023-03-14T11:04:21;10.00;99.90
21678;DHT22;11000;50.360;7.582;2023-03-14T11:14:44;9.80;99.90
21678;DHT22;11000;50.360;7.582;2023-03-14T11:17:34;9.80;99.90
21678;DHT22;11000;50.360;7.582;2023-03-14T11:20:23;9.70;99.90
21678;DHT22;11000;50.360;7.582;2023-03-14T11:23:14;9.60;99.90
21678;DHT22;11000;50.360;7.582;2023-03-14T11:25:43;9.60;99.90
21678;DHT22;11000;50.360;7.582;2023-03-14T11:28:30;9.50;99.90
21678;DHT22;11000;50.360;7.582;2023-03-14T11:30:55;9.50;99.90
21678;DHT22;11000;50.360;7.582;2023-03-14T11:33:28;9.50;99.90
21678;DHT22;11000;50.360;7.582;2023-03-14T11:36:03;9.50;99.90
21678;DHT22;11000;50.360;7.582;2023-03-14T11:38:40;9.50;99.90
21678;DHT22;11000;50.360;7.582;2023-03-14T11:41:04;9.50;99.90
21678;DHT22;11000;50.360;7.582;2023-03-14T11:43:34;9.50;99.90
21678;DHT22;11000;50.360;7.582;2023-03-14T11:46:03;9.50;99.90
21678;DHT22;11000;50.360;7.582;2023-03-14T11:48:57;9.60;99.90
21678;DHT22;11000;50.360;7.582;2023-03-14T11:51:36;9.70;99.90
21678;DHT22;11000;50.360;7.582;2023-03-14T11:59:14;9.80;99.90
21678;DHT22;11000;50.360;7.582;2023-03-14T12:01:49;9.80;99.90
21678;DHT22;11000;50.360;7.582;2023-03-14T12:04:21;9.80;99.90
21678;DHT22;11000;50.360;7.582;2023-03-14T12:06:49;9.80;99.90
21678;DHT22;11000;50.360;7.582;2023-03-14T12:09:10;9.90;99.90
21678;DHT22;11000;50.360;7.582;2023-03-14T12:14:21;10.00;99.90
21678;DHT22;11000;50.360;7.582;2023-03-14T12:16:46;10.10;99.90
21678;DHT22;11000;50.360;7.582;2023-03-14T12:24:19;10.40;99.90
21678;DHT22;11000;50.360;7.582;2023-03-14T12:26:57;10.40;99.90
21678;DHT22;11000;50.360;7.582;2023-03-14T12:29:17;10.60;99.90
21678;DHT22;11000;50.360;7.582;2023-03-14T12:31:42;11.10;99.90
21678;DHT22;11000;50.360;7.582;2023-03-14T12:36:58;12.00;99.90
21678;DHT22;11000;50.360;7.582;2023-03-14T12:39:37;12.40;99.90
21678;DHT22;11000;50.360;7.582;2023-03-14T12:42:04;12.00;99.90
21678;DHT22;11000;50.360;7.582;2023-03-14T12:46:51;10.70;99.90
21678;DHT22;11000;50.360;7.582;2023-03-14T12:49:12;10.50;99.90
21678;DHT22;11000;50.360;7.582;2023-03-14T12:51:39;10.40;99.90
21678;DHT22;11000;50.360;7.582;2023-03-14T12:54:10;10.30;99.90
21678;DHT22;11000;50.360;7.582;2023-03-14T12:59:34;10.20;99.90
21678;DHT22;11000;50.360;7.582;2023-03-14T13:05:19;10.10;99.90
21678;DHT22;11000;50.360;7.582;2023-03-14T13:12:46;10.10;99.90
21678;DHT22;11000;50.360;7.582;2023-03-14T13:15:27;10.10;99.90
21678;DHT22;11000;50.360;7.582;2023-03-14T13:17:50;10.10;99.90
21678;DHT22;11000;50.360;7.582;2023-03-14T13:20:16;10.00;99.90
21678;DHT22;11000;50.360;7.582;2023-03-14T13:22:45;10.00;99.90
21678;DHT22;11000;50.360;7.582;2023-03-14T13:25:10;9.80;99.90
21678;DHT22;11000;50.360;7.582;2023-03-14T13:27:33;9.10;99.90
21678;DHT22;11000;50.360;7.582;2023-03-14T13:29:53;8.50;99.90
21678;DHT22;11000;50.360;7.582;2023-03-14T13:32:22;8.00;99.90
21678;DHT22;11000;50.360;7.582;2023-03-14T13:34:46;7.90;99.90
21678;DHT22;11000;50.360;7.582;2023-03-14T13:37:22;7.80;99.90
21678;DHT22;11000;50.360;7.582;2023-03-14T13:39:43;7.70;99.90
21678;DHT22;11000;50.360;7.582;2023-03-14T13:42:14;7.50;99.90
21678;DHT22;11000;50.360;7.582;2023-03-14T13:44:38;7.40;99.90
21678;DHT22;11000;50.360;7.582;2023-03-14T13:47:00;7.40;99.90
21678;DHT22;11000;50.360;7.582;2023-03-14T13:49:23;7.50;99.90
21678;DHT22;11000;50.360;7.582;2023-03-14T13:51:44;7.50;99.90
21678;DHT22;11000;50.360;7.582;2023-03-14T13:54:14;7.50;99.90
21678;DHT22;11000;50.360;7.582;2023-03-14T13:56:35;7.60;99.90
21678;DHT22;11000;50.360;7.582;2023-03-14T13:58:56;7.70;99.90
21678;DHT22;11000;50.360;7.582;2023-03-14T14:03:40;7.60;99.90
21678;DHT22;11000;50.360;7.582;2023-03-14T14:06:01;7.70;99.90
21678;DHT22;11000;50.360;7.582;2023-03-14T14:08:22;7.70;99.90
21678;DHT22;11000;50.360;7.582;2023-03-14T14:10:43;7.60;99.90
21678;DHT22;11000;50.360;7.582;2023-03-14T14:13:11;7.50;99.90
21678;DHT22;11000;50.360;7.582;2023-03-14T14:15:39;7.50;99.90
21678;DHT22;11000;50.360;7.582;2023-03-14T14:18:07;7.40;99.90
21678;DHT22;11000;50.360;7.582;2023-03-14T14:20:35;7.40;99.90
21678;DHT22;11000;50.360;7.582;2023-03-14T14:22:56;7.50;99.90
21678;DHT22;11000;50.360;7.582;2023-03-14T14:25:17;7.50;99.90
21678;DHT22;11000;50.360;7.582;2023-03-14T14:27:42;7.60;99.90
21678;DHT22;11000;50.360;7.582;2023-03-14T14:30:06;7.70;99.90
21678;DHT22;11000;50.360;7.582;2023-03-14T14:32:27;7.70;99.90
21678;DHT22;11000;50.360;7.582;2023-03-14T14:34:59;7.80;99.90
21678;DHT22;11000;50.360;7.582;2023-03-14T14:37:22;7.80;99.90
21678;DHT22;11000;50.360;7.582;2023-03-14T14:39:43;7.80;99.90
21678;DHT22;11000;50.360;7.582;2023-03-14T14:42:04;7.90;99.90
21678;DHT22;11000;50.360;7.582;2023-03-14T14:44:30;7.80;99.90
21678;DHT22;11000;50.360;7.582;2023-03-14T14:46:54;7.70;99.90
21678;DHT22;11000;50.360;7.582;2023-03-14T14:49:18;7.60;99.90
21678;DHT22;11000;50.360;7.582;2023-03-14T14:51:47;7.70;99.90
21678;DHT22;11000;50.360;7.582;2023-03-14T14:54:14;7.70;99.90
21678;DHT22;11000;50.360;7.582;2023-03-14T14:56:36;7.80;99.90
21678;DHT22;11000;50.360;7.582;2023-03-14T14:59:01;7.90;99.90
21678;DHT22;11000;50.360;7.582;2023-03-14T15:01:25;7.90;99.90
21678;DHT22;11000;50.360;7.582;2023-03-14T15:03:52;8.00;99.90
21678;DHT22;11000;50.360;7.582;2023-03-14T15:06:15;7.90;99.90
21678;DHT22;11000;50.360;7.582;2023-03-14T15:08:37;8.00;99.90
21678;DHT22;11000;50.360;7.582;2023-03-14T15:10:58;8.00;99.90
21678;DHT22;11000;50.360;7.582;2023-03-14T15:13:18;8.00;99.90
21678;DHT22;11000;50.360;7.582;2023-03-14T15:15:39;8.00;99.90
21678;DHT22;11000;50.360;7.582;2023-03-14T15:17:59;8.00;99.90
21678;DHT22;11000;50.360;7.582;2023-03-14T15:20:20;7.90;99.90
21678;DHT22;11000;50.360;7.582;2023-03-14T15:22:43;7.80;99.90
21678;DHT22;11000;50.360;7.582;2023-03-14T15:25:04;7.70;99.90
21678;DHT22;11000;50.360;7.582;2023-03-14T15:27:25;7.60;99.90
21678;DHT22;11000;50.360;7.582;2023-03-14T15:29:47;7.60;99.90
21678;DHT22;11000;50.360;7.582;2023-03-14T15:32:11;7.50;99.90
21678;DHT22;11000;50.360;7.582;2023-03-14T15:34:32;7.40;99.90
21678;DHT22;11000;50.360;7.582;2023-03-14T15:36:53;7.50;99.90
21678;DHT22;11000;50.360;7.582;2023-03-14T15:39:13;7.40;99.90
21678;DHT22;11000;50.360;7.582;2023-03-14T15:41:34;7.30;99.90
21678;DHT22;11000;50.360;7.582;2023-03-14T15:43:55;7.20;99.90
21678;DHT22;11000;50.360;7.582;2023-03-14T15:46:15;6.90;99.90
21678;DHT22;11000;50.360;7.582;2023-03-14T15:48:37;6.70;99.90
21678;DHT22;11000;50.360;7.582;2023-03-14T15:50:58;6.50;99.90
21678;DHT22;11000;50.360;7.582;2023-03-14T15:53:18;6.50;99.90
21678;DHT22;11000;50.360;7.582;2023-03-14T15:55:39;6.30;99.90